Bagdad, AZ (86321)

1:51 PM MST on February 22, 2017 (GMT -0700)
Love | | Change Station

Elev 5046 ft 34.65 °N, 112.42 °W | Updated 58 minutes ago

Clear
Clear
58 °F
Feels Like 58 °F
N
14
Wind Variable Wind from South
Gusts 22 mph

Today
High -- | Low -- °F
--% Chance of Precip.
Yesterday
High -- | Low -- °F
Precip. -- in
Pressure 29.90 in
Visibility 10.0 miles
Clouds Few 4000 ft
Dew Point 34 °F
Humidity 41%
Rainfall 0.00 in
Snow Depth Not available.
7:09 AM 6:22 PM
Waning Crescent, 15% visible
METAR KPRC 221953Z 18012G19KT 10SM FEW040 14/01 A3002 RMK AO2 SLP123 T01440011
Pressure 29.90 in
Visibility 10.0 miles
Clouds Few 4000 ft
Dew Point 34 °F
Humidity 41%
Rainfall 0.00 in
Snow Depth Not available.
7:09 AM 6:22 PM
Waning Crescent, 15% visible
METAR KPRC 221953Z 18012G19KT 10SM FEW040 14/01 A3002 RMK AO2 SLP123 T01440011

Get Your Daily Forecast Email!

Thanks for signing up!

Be on the lookout for a verification email in your inbox.

You'll start receiving the daily forecast at 8 AM.

×

10-Day Weather Forecast

Almanac

Astronomy

Feb. 22, 2017 Rise Set
Actual Time
Civil Twilight
Nautical Twilight
Astronomical Twilight
Moon
Length of Visible Light
Length of Day
Tomorrow will be .
, % of the Moon is Illuminated

Today's Extremes

State Highs State Lows

Community

WunderPhotos

Upload Photos

1,962,540 photos uploaded!

WunderBlog® & News

Nearby

Air Quality

  Air Quality AQ Index Pollutant
Not available.

Snow Depth

Station Depth Elevation

Earthquake Activity

City Distance Mag. Time & Date
Minimum magnitude displayed is 2.5.

Coastal Water Temperatures

Place Temperature

Stations

Nearby Weather Stations

Station Location Temp. Windchill Dew Point Humidity Wind Precip. Elev Updated Type
                   

Watches & Warnings

There are currently no watches in effect.